createdAt,value
2023-04-26T00:00:23.395Z,11.20
2023-04-26T00:03:09.216Z,11.20
2023-04-26T00:05:55.047Z,11.10
2023-04-26T00:08:42.332Z,11.20
2023-04-26T00:11:31.337Z,11.30
2023-04-26T00:14:17.899Z,11.20
2023-04-26T00:17:04.929Z,10.60
2023-04-26T00:19:52.256Z,10.60
2023-04-26T00:22:38.274Z,10.70
2023-04-26T00:25:25.892Z,10.60
2023-04-26T00:28:12.495Z,10.40
2023-04-26T00:30:58.163Z,10.40
2023-04-26T00:33:44.480Z,10.50
2023-04-26T00:36:32.505Z,10.70
2023-04-26T00:39:17.912Z,10.80
2023-04-26T00:42:03.642Z,10.80
2023-04-26T00:44:50.399Z,10.90
2023-04-26T00:47:36.544Z,11.20
2023-04-26T00:50:22.092Z,11.40
2023-04-26T00:53:09.063Z,11.60
2023-04-26T00:55:54.853Z,11.70
2023-04-26T00:58:40.764Z,11.80
2023-04-26T01:01:26.155Z,11.60
2023-04-26T01:04:13.129Z,11.30
2023-04-26T01:07:03.337Z,11.10
2023-04-26T01:09:52.706Z,11.00
2023-04-26T01:12:40.558Z,10.80
2023-04-26T01:15:28.490Z,10.70
2023-04-26T01:18:15.216Z,10.70
2023-04-26T01:21:03.281Z,10.60
2023-04-26T01:23:51.645Z,10.30
2023-04-26T01:26:46.725Z,10.10
2023-04-26T01:29:36.316Z,10.00
2023-04-26T01:32:23.105Z,10.00
2023-04-26T01:35:09.129Z,10.10
2023-04-26T01:37:54.720Z,10.20
2023-04-26T01:40:40.647Z,10.20
2023-04-26T01:43:26.428Z,10.20
2023-04-26T01:46:12.434Z,10.30
2023-04-26T01:48:58.881Z,10.30
2023-04-26T01:51:44.439Z,10.30
2023-04-26T01:54:30.215Z,10.30
2023-04-26T01:57:15.960Z,10.30
2023-04-26T02:00:05.005Z,10.30
2023-04-26T02:02:59.122Z,10.40
2023-04-26T02:05:45.016Z,10.40
2023-04-26T02:08:30.994Z,10.40
2023-04-26T02:11:16.901Z,10.30
2023-04-26T02:14:02.873Z,10.40
2023-04-26T02:16:49.417Z,10.40
2023-04-26T02:19:35.485Z,10.30
2023-04-26T02:22:23.549Z,10.30
2023-04-26T02:25:09.896Z,10.20
2023-04-26T02:27:56.446Z,10.10
2023-04-26T02:30:43.239Z,10.10
2023-04-26T02:33:29.124Z,10.20
2023-04-26T02:36:16.674Z,10.20
2023-04-26T02:39:02.589Z,10.40
2023-04-26T02:41:49.347Z,10.30
2023-04-26T02:44:35.429Z,10.40
2023-04-26T02:47:22.545Z,10.40
2023-04-26T02:50:09.753Z,10.30
2023-04-26T02:52:56.464Z,10.20
2023-04-26T02:55:42.562Z,10.20
2023-04-26T02:58:28.723Z,10.10
2023-04-26T03:01:15.565Z,10.00
2023-04-26T03:04:01.501Z,10.00
2023-04-26T03:06:47.661Z,9.90
2023-04-26T03:09:34.559Z,9.90
2023-04-26T03:12:20.153Z,9.90
2023-04-26T03:15:06.496Z,9.90
2023-04-26T03:17:52.446Z,9.80
2023-04-26T03:20:38.215Z,9.90
2023-04-26T03:23:25.951Z,9.80
2023-04-26T03:26:13.142Z,10.00
2023-04-26T03:28:59.254Z,10.00
2023-04-26T03:31:45.576Z,10.00
2023-04-26T03:34:33.307Z,9.90
2023-04-26T03:37:22.548Z,9.90
2023-04-26T03:40:27.253Z,9.90
2023-04-26T03:43:13.217Z,9.70
2023-04-26T03:45:59.026Z,8.90
2023-04-26T03:48:44.633Z,9.80
2023-04-26T03:51:31.482Z,9.80
2023-04-26T03:54:17.622Z,9.70
2023-04-26T03:57:03.986Z,9.60
2023-04-26T03:59:49.841Z,9.20
2023-04-26T04:02:35.819Z,9.70
2023-04-26T04:05:22.500Z,9.70
2023-04-26T04:08:09.205Z,9.70
2023-04-26T04:10:57.712Z,9.70
2023-04-26T04:13:44.852Z,9.70
2023-04-26T04:16:30.616Z,9.80
2023-04-26T04:19:22.801Z,9.80
2023-04-26T04:22:08.338Z,9.70
2023-04-26T04:24:55.887Z,9.60
2023-04-26T04:27:45.276Z,10.20
2023-04-26T04:30:32.077Z,9.60
2023-04-26T04:33:20.646Z,9.70
2023-04-26T04:36:08.298Z,9.60
2023-04-26T04:38:55.104Z,9.60
2023-04-26T04:41:49.199Z,9.50
2023-04-26T04:44:39.896Z,9.60
2023-04-26T04:47:27.014Z,9.60
2023-04-26T04:50:13.447Z,9.60
2023-04-26T04:56:01.591Z,9.60
2023-04-26T04:58:48.914Z,9.80
2023-04-26T05:01:40.837Z,9.80
2023-04-26T05:04:34.402Z,9.80
2023-04-26T05:08:18.465Z,9.90
2023-04-26T05:11:04.010Z,10.20
2023-04-26T05:13:52.292Z,10.20
2023-04-26T05:16:39.346Z,10.20
2023-04-26T05:19:25.645Z,10.30
2023-04-26T05:22:13.243Z,10.20
2023-04-26T05:24:59.243Z,10.40
2023-04-26T05:27:46.073Z,10.70
2023-04-26T05:30:36.434Z,10.80
2023-04-26T05:33:40.338Z,10.90
2023-04-26T05:36:36.221Z,11.00
2023-04-26T05:39:24.952Z,11.20
2023-04-26T05:42:11.493Z,11.40
2023-04-26T05:44:59.516Z,11.50
2023-04-26T05:47:47.770Z,11.70
2023-04-26T05:50:33.944Z,11.90
2023-04-26T05:53:20.918Z,12.10
2023-04-26T05:56:07.189Z,12.20
2023-04-26T05:58:53.603Z,12.30
2023-04-26T06:01:39.276Z,12.60
2023-04-26T06:04:25.889Z,12.70
2023-04-26T06:07:22.321Z,12.00
2023-04-26T06:10:09.515Z,12.30
2023-04-26T06:12:55.904Z,12.70
2023-04-26T06:15:42.384Z,13.00
2023-04-26T06:18:28.315Z,12.60
2023-04-26T06:21:14.460Z,12.60
2023-04-26T06:24:00.490Z,12.90
2023-04-26T06:26:48.229Z,13.40
2023-04-26T06:29:34.441Z,13.50
2023-04-26T06:32:20.123Z,13.50
2023-04-26T06:35:06.778Z,13.50
2023-04-26T06:37:52.432Z,13.50
2023-04-26T06:40:39.764Z,13.40
2023-04-26T06:43:26.311Z,13.50
2023-04-26T06:46:18.139Z,13.60
2023-04-26T06:49:12.080Z,13.40
2023-04-26T06:51:58.394Z,13.50
2023-04-26T06:54:56.068Z,13.80
2023-04-26T06:57:43.478Z,13.80
2023-04-26T07:00:30.353Z,13.70
2023-04-26T07:03:17.397Z,13.90
2023-04-26T07:06:03.756Z,13.90
2023-04-26T07:08:50.256Z,14.10
2023-04-26T07:11:36.339Z,14.50
2023-04-26T07:14:22.857Z,14.50
2023-04-26T07:17:12.699Z,14.20
2023-04-26T07:19:58.635Z,14.50
2023-04-26T07:22:45.447Z,14.50
2023-04-26T07:25:31.815Z,14.70
2023-04-26T07:28:17.665Z,15.20
2023-04-26T07:31:04.879Z,15.50
2023-04-26T07:33:52.845Z,15.70
2023-04-26T07:36:39.276Z,15.60
2023-04-26T07:39:24.991Z,15.60
2023-04-26T07:42:10.915Z,15.80
2023-04-26T07:44:57.041Z,16.20
2023-04-26T07:47:43.260Z,16.00
2023-04-26T07:50:29.613Z,15.80
2023-04-26T07:53:15.750Z,15.90
2023-04-26T07:56:04.275Z,16.30
2023-04-26T07:58:51.060Z,16.30
2023-04-26T08:01:37.167Z,16.70
2023-04-26T08:04:33.223Z,16.40
2023-04-26T08:07:20.058Z,16.40
2023-04-26T08:10:07.132Z,16.90
2023-04-26T08:12:53.910Z,17.10
2023-04-26T08:15:40.968Z,16.90
2023-04-26T08:18:26.862Z,16.10
2023-04-26T08:21:12.788Z,16.70
2023-04-26T08:23:59.016Z,17.50
2023-04-26T08:26:45.766Z,17.80
2023-04-26T08:29:31.792Z,17.80
2023-04-26T08:32:18.022Z,18.70
2023-04-26T08:35:03.795Z,20.60
2023-04-26T08:37:49.669Z,21.40
2023-04-26T08:40:36.811Z,20.00
2023-04-26T08:43:24.162Z,21.40
2023-04-26T08:46:15.333Z,20.50
2023-04-26T08:49:22.452Z,22.60
2023-04-26T08:52:13.580Z,22.50
2023-04-26T08:55:01.296Z,23.10
2023-04-26T08:57:49.905Z,21.20
2023-04-26T09:00:37.219Z,21.70
2023-04-26T09:03:27.084Z,21.80
2023-04-26T09:06:13.946Z,21.30
2023-04-26T09:09:02.529Z,20.70
2023-04-26T09:11:54.139Z,22.30
2023-04-26T09:14:40.351Z,23.10
2023-04-26T09:17:32.475Z,23.70
2023-04-26T09:20:20.573Z,24.70
2023-04-26T09:23:08.764Z,25.90
2023-04-26T09:25:54.720Z,25.10
2023-04-26T09:28:40.567Z,24.80
2023-04-26T09:31:40.942Z,25.60
2023-04-26T09:34:26.815Z,23.10
2023-04-26T09:37:14.157Z,24.50
2023-04-26T09:40:00.302Z,24.50
2023-04-26T09:42:46.385Z,23.50
2023-04-26T09:45:44.198Z,22.80
2023-04-26T09:48:33.618Z,22.80
2023-04-26T09:51:20.164Z,23.30
2023-04-26T09:54:06.652Z,25.40
2023-04-26T09:57:03.024Z,27.00
2023-04-26T09:59:54.213Z,26.20
2023-04-26T10:02:41.404Z,24.20
2023-04-26T10:05:29.603Z,23.90
2023-04-26T10:08:16.836Z,24.30
2023-04-26T10:11:05.398Z,25.00
2023-04-26T10:13:52.131Z,25.70
2023-04-26T10:16:39.332Z,27.80
2023-04-26T10:19:26.375Z,28.40
2023-04-26T10:22:26.105Z,24.70
2023-04-26T10:25:13.515Z,24.10
2023-04-26T10:27:59.342Z,23.90
2023-04-26T10:31:01.788Z,25.20
2023-04-26T10:34:21.883Z,24.20
2023-04-26T10:37:13.559Z,25.10
2023-04-26T10:40:29.752Z,25.00
2023-04-26T10:43:19.955Z,28.10
2023-04-26T10:46:33.325Z,28.20
2023-04-26T10:49:26.718Z,26.50
2023-04-26T10:52:20.300Z,25.20
2023-04-26T10:55:07.796Z,25.90
2023-04-26T10:57:54.457Z,26.20
2023-04-26T11:00:40.490Z,24.10
2023-04-26T11:03:26.969Z,24.30
2023-04-26T11:06:15.409Z,26.50
2023-04-26T11:09:01.252Z,26.90
2023-04-26T11:11:56.215Z,25.40
2023-04-26T11:14:42.918Z,27.20
2023-04-26T11:17:28.557Z,27.50
2023-04-26T11:20:17.596Z,28.10
2023-04-26T11:23:04.268Z,25.00
2023-04-26T11:25:50.789Z,26.80
2023-04-26T11:28:38.565Z,28.40
2023-04-26T11:31:25.010Z,29.50
2023-04-26T11:34:10.797Z,29.40
2023-04-26T11:36:56.956Z,26.70
2023-04-26T11:39:45.694Z,25.80
2023-04-26T11:42:32.313Z,24.20
2023-04-26T11:45:18.251Z,23.30
2023-04-26T11:48:11.432Z,24.50
2023-04-26T11:51:02.004Z,25.20
2023-04-26T11:53:47.848Z,25.10
2023-04-26T11:56:33.829Z,25.50
2023-04-26T11:59:30.017Z,26.30
2023-04-26T12:02:16.245Z,25.20
2023-04-26T12:05:03.770Z,25.60
2023-04-26T12:07:55.471Z,27.00
2023-04-26T12:10:41.748Z,28.40
2023-04-26T12:13:29.661Z,29.80
2023-04-26T12:16:25.781Z,31.40
2023-04-26T12:19:13.331Z,28.70
2023-04-26T12:21:59.825Z,28.90
2023-04-26T12:24:48.137Z,24.80
2023-04-26T12:27:34.089Z,24.60
2023-04-26T12:30:20.662Z,27.40
2023-04-26T12:33:23.253Z,26.30
2023-04-26T12:36:13.712Z,27.80
2023-04-26T12:39:01.303Z,28.40
2023-04-26T12:41:47.306Z,27.50
2023-04-26T12:44:33.033Z,27.90
2023-04-26T12:47:18.864Z,25.50
2023-04-26T12:50:06.032Z,24.70
2023-04-26T12:52:51.581Z,27.10
2023-04-26T12:55:37.676Z,28.20
2023-04-26T12:58:23.694Z,27.70
2023-04-26T13:01:09.636Z,26.30
2023-04-26T13:03:56.656Z,25.40
2023-04-26T13:06:42.627Z,23.60
2023-04-26T13:09:28.495Z,24.60
2023-04-26T13:12:15.794Z,24.30
2023-04-26T13:15:01.605Z,23.70
2023-04-26T13:17:47.592Z,23.30
2023-04-26T13:20:33.617Z,22.90
2023-04-26T13:23:19.796Z,22.30
2023-04-26T13:26:05.779Z,21.70
2023-04-26T13:28:51.574Z,21.70
2023-04-26T13:31:38.142Z,21.80
2023-04-26T13:34:25.777Z,21.90
2023-04-26T13:37:12.426Z,21.90
2023-04-26T13:39:58.746Z,21.70
2023-04-26T13:42:45.527Z,21.80
2023-04-26T13:45:31.701Z,21.90
2023-04-26T13:48:18.259Z,21.60
2023-04-26T13:51:07.002Z,21.80
2023-04-26T13:53:55.676Z,21.70
2023-04-26T13:56:41.356Z,21.40
2023-04-26T13:59:27.398Z,21.30
2023-04-26T14:02:14.103Z,21.40
2023-04-26T14:05:00.697Z,21.50
2023-04-26T14:07:46.991Z,21.40
2023-04-26T14:10:33.417Z,19.10
2023-04-26T14:13:19.696Z,20.80
2023-04-26T14:16:06.529Z,21.10
2023-04-26T14:18:52.406Z,21.40
2023-04-26T14:21:38.876Z,21.30
2023-04-26T14:24:25.440Z,21.40
2023-04-26T14:27:11.792Z,21.50
2023-04-26T14:29:57.843Z,21.70
2023-04-26T14:32:43.861Z,21.70
2023-04-26T14:35:29.989Z,21.40
2023-04-26T14:38:16.068Z,21.50
2023-04-26T14:41:02.043Z,21.00
2023-04-26T14:43:47.855Z,20.80
2023-04-26T14:46:33.800Z,20.90
2023-04-26T14:49:20.206Z,21.00
2023-04-26T14:52:06.095Z,21.40
2023-04-26T14:54:51.779Z,21.20
2023-04-26T14:57:40.176Z,21.10
2023-04-26T15:00:25.985Z,21.20
2023-04-26T15:03:12.237Z,21.30
2023-04-26T15:05:58.584Z,21.60
2023-04-26T15:08:44.651Z,21.70
2023-04-26T15:11:30.619Z,21.50
2023-04-26T15:14:16.445Z,21.20
2023-04-26T15:17:02.544Z,21.30
2023-04-26T15:19:48.825Z,21.40
2023-04-26T15:22:36.094Z,21.70
2023-04-26T15:25:24.186Z,22.10
2023-04-26T15:28:10.699Z,21.50
2023-04-26T15:31:08.404Z,21.80
2023-04-26T15:33:56.535Z,21.30
2023-04-26T15:36:42.685Z,21.70
2023-04-26T15:39:28.746Z,21.20
2023-04-26T15:42:14.766Z,22.10
2023-04-26T15:45:00.803Z,21.20
2023-04-26T15:47:47.443Z,21.50
2023-04-26T15:50:33.687Z,21.70
2023-04-26T15:53:20.640Z,21.70
2023-04-26T15:56:18.427Z,21.50
2023-04-26T15:59:04.378Z,21.30
2023-04-26T16:01:50.186Z,21.00
2023-04-26T16:04:36.192Z,20.90
2023-04-26T16:07:21.808Z,20.90
2023-04-26T16:10:09.460Z,21.00
2023-04-26T16:12:55.163Z,21.40
2023-04-26T16:15:41.487Z,21.50
2023-04-26T16:18:27.338Z,21.10
2023-04-26T16:21:13.416Z,20.60
2023-04-26T16:24:00.261Z,20.70
2023-04-26T16:26:46.694Z,20.80
2023-04-26T16:29:33.025Z,21.20
2023-04-26T16:32:18.514Z,21.40
2023-04-26T16:35:05.216Z,21.50
2023-04-26T16:37:51.802Z,21.40
2023-04-26T16:40:37.659Z,21.50
2023-04-26T16:43:27.499Z,21.50
2023-04-26T16:46:13.720Z,21.30
2023-04-26T16:48:59.610Z,21.40
2023-04-26T16:51:51.424Z,21.40
2023-04-26T16:54:37.485Z,21.40
2023-04-26T16:57:24.803Z,21.40
2023-04-26T17:00:11.770Z,21.10
2023-04-26T17:02:57.921Z,21.30
2023-04-26T17:05:48.901Z,21.40
2023-04-26T17:08:34.691Z,21.40
2023-04-26T17:11:20.304Z,21.50
2023-04-26T17:14:06.271Z,21.40
2023-04-26T17:16:52.672Z,21.50
2023-04-26T17:19:38.432Z,21.40
2023-04-26T17:22:24.350Z,21.30
2023-04-26T17:25:10.561Z,21.40
2023-04-26T17:27:56.823Z,21.50
2023-04-26T17:30:42.732Z,21.30
2023-04-26T17:33:28.726Z,21.40
2023-04-26T17:36:14.966Z,21.20
2023-04-26T17:39:01.187Z,21.20
2023-04-26T17:41:47.248Z,20.90
2023-04-26T17:44:33.190Z,20.60
2023-04-26T17:47:19.147Z,20.50
2023-04-26T17:50:06.225Z,20.40
2023-04-26T17:52:52.154Z,20.70
2023-04-26T17:55:38.221Z,20.90
2023-04-26T17:58:25.178Z,20.90
2023-04-26T18:01:11.047Z,20.60
2023-04-26T18:03:57.445Z,20.20
2023-04-26T18:06:44.057Z,19.90
2023-04-26T18:09:30.368Z,19.80
2023-04-26T18:12:15.924Z,20.00
2023-04-26T18:15:02.158Z,19.90
2023-04-26T18:17:48.944Z,19.40
2023-04-26T18:20:38.473Z,19.00
2023-04-26T18:23:24.856Z,19.00
2023-04-26T18:26:11.207Z,19.00
2023-04-26T18:28:57.115Z,19.00
2023-04-26T18:31:43.220Z,18.90
2023-04-26T18:34:28.935Z,18.90
2023-04-26T18:37:14.923Z,19.00
2023-04-26T18:40:00.908Z,19.10
2023-04-26T18:42:46.780Z,18.90
2023-04-26T18:45:33.225Z,18.70
2023-04-26T18:48:19.041Z,19.10
2023-04-26T18:51:05.057Z,19.40
2023-04-26T18:53:51.974Z,19.10
2023-04-26T18:56:49.130Z,19.20
2023-04-26T18:59:35.342Z,19.50
2023-04-26T19:02:21.676Z,19.40
2023-04-26T19:05:09.686Z,19.10
2023-04-26T19:07:56.134Z,18.90
2023-04-26T19:11:38.495Z,18.90
2023-04-26T19:14:24.251Z,18.90
2023-04-26T19:17:09.691Z,19.20
2023-04-26T19:19:55.685Z,18.90
2023-04-26T19:22:47.219Z,18.90
2023-04-26T19:25:33.162Z,19.00
2023-04-26T19:28:20.128Z,19.00
2023-04-26T19:32:02.674Z,19.00
2023-04-26T19:34:48.419Z,18.90
2023-04-26T19:37:34.277Z,18.70
2023-04-26T19:40:21.591Z,18.60
2023-04-26T19:43:07.888Z,18.60
2023-04-26T19:45:53.570Z,18.60
2023-04-26T19:48:39.970Z,18.60
2023-04-26T19:51:25.514Z,18.50
2023-04-26T19:54:11.492Z,18.20
2023-04-26T19:56:57.246Z,18.10
2023-04-26T19:59:42.833Z,18.10
2023-04-26T20:02:30.006Z,18.10
2023-04-26T20:05:16.510Z,17.80
2023-04-26T20:08:02.788Z,17.60
2023-04-26T20:10:49.325Z,17.60
2023-04-26T20:13:35.013Z,17.50
2023-04-26T20:16:21.082Z,17.40
2023-04-26T20:19:07.188Z,17.30
2023-04-26T20:21:53.240Z,17.20
2023-04-26T20:24:39.058Z,17.10
2023-04-26T20:27:24.956Z,17.10
2023-04-26T20:30:12.374Z,16.90
2023-04-26T20:32:58.670Z,17.00
2023-04-26T20:35:44.620Z,17.20
2023-04-26T20:38:30.805Z,17.40
2023-04-26T20:41:16.773Z,17.50
2023-04-26T20:44:02.645Z,17.30
2023-04-26T20:46:48.770Z,17.20
2023-04-26T20:49:34.808Z,17.20
2023-04-26T20:52:20.859Z,17.20
2023-04-26T20:55:07.643Z,17.10
2023-04-26T20:57:53.852Z,17.10
2023-04-26T21:00:40.414Z,16.60
2023-04-26T21:03:26.943Z,16.50
2023-04-26T21:06:12.576Z,16.20
2023-04-26T21:08:58.399Z,16.20
2023-04-26T21:11:44.680Z,16.20
2023-04-26T21:14:30.980Z,15.50
2023-04-26T21:17:18.174Z,15.90
2023-04-26T21:20:04.422Z,15.90
2023-04-26T21:22:50.126Z,16.10
2023-04-26T21:25:36.128Z,16.10
2023-04-26T21:28:22.488Z,15.80
2023-04-26T21:31:08.751Z,15.70
2023-04-26T21:33:54.919Z,16.00
2023-04-26T21:36:40.431Z,14.40
2023-04-26T21:39:26.212Z,16.10
2023-04-26T21:42:12.061Z,15.80
2023-04-26T21:44:58.034Z,15.60
2023-04-26T21:47:44.219Z,15.50
2023-04-26T21:50:30.297Z,15.50
2023-04-26T21:53:17.313Z,15.40
2023-04-26T21:56:05.791Z,15.60
2023-04-26T21:58:51.776Z,15.40
2023-04-26T22:01:37.429Z,15.40
2023-04-26T22:04:23.448Z,15.30
2023-04-26T22:07:09.121Z,15.30
2023-04-26T22:09:55.504Z,15.20
2023-04-26T22:12:41.538Z,15.20
2023-04-26T22:15:27.216Z,15.20
2023-04-26T22:18:13.403Z,15.10
2023-04-26T22:20:58.978Z,14.10
2023-04-26T22:23:44.894Z,15.10
2023-04-26T22:26:31.157Z,15.30
2023-04-26T22:29:17.069Z,15.20
2023-04-26T22:32:03.127Z,15.10
2023-04-26T22:34:49.321Z,15.20
2023-04-26T22:37:35.082Z,15.30
2023-04-26T22:40:21.489Z,15.10
2023-04-26T22:43:07.528Z,14.90
2023-04-26T22:45:53.191Z,14.70
2023-04-26T22:48:38.699Z,14.80
2023-04-26T22:51:24.568Z,14.60
2023-04-26T22:54:10.096Z,14.50
2023-04-26T22:56:55.687Z,14.70
2023-04-26T22:59:41.232Z,14.80
2023-04-26T23:02:26.889Z,14.70
2023-04-26T23:05:12.772Z,14.60
2023-04-26T23:07:58.595Z,14.50
2023-04-26T23:10:43.992Z,14.40
2023-04-26T23:13:30.415Z,14.20
2023-04-26T23:16:16.484Z,14.10
2023-04-26T23:19:02.685Z,14.00
2023-04-26T23:21:49.257Z,14.10
2023-04-26T23:24:36.020Z,14.20
2023-04-26T23:27:21.705Z,13.80
2023-04-26T23:30:08.210Z,13.80
2023-04-26T23:32:54.495Z,13.50
2023-04-26T23:35:41.941Z,13.90
2023-04-26T23:38:28.190Z,14.20
2023-04-26T23:41:13.851Z,14.30
2023-04-26T23:43:59.904Z,14.40
2023-04-26T23:46:45.943Z,14.50
2023-04-26T23:49:31.847Z,13.80
2023-04-26T23:52:17.989Z,12.40
2023-04-26T23:55:04.283Z,12.10
2023-04-26T23:57:50.504Z,12.70
